sensor_id;sensor_type;location;lat;lon;timestamp;P1;durP1;ratioP1;P2;durP2;ratioP2
70080;SDS011;57452;50.496;30.504;2022-07-12T00:02:13;1.85;;;1.23;;
70080;SDS011;57452;50.496;30.504;2022-07-12T00:04:41;4.63;;;1.88;;
70080;SDS011;57452;50.496;30.504;2022-07-12T00:07:08;2.83;;;1.08;;
70080;SDS011;57452;50.496;30.504;2022-07-12T00:09:37;2.13;;;1.20;;
70080;SDS011;57452;50.496;30.504;2022-07-12T00:12:04;2.15;;;1.42;;
70080;SDS011;57452;50.496;30.504;2022-07-12T00:14:32;5.25;;;1.33;;
70080;SDS011;57452;50.496;30.504;2022-07-12T00:16:59;1.77;;;1.20;;
70080;SDS011;57452;50.496;30.504;2022-07-12T00:19:27;2.97;;;1.40;;
70080;SDS011;57452;50.496;30.504;2022-07-12T00:21:54;3.05;;;1.50;;
70080;SDS011;57452;50.496;30.504;2022-07-12T00:24:22;3.00;;;1.38;;
70080;SDS011;57452;50.496;30.504;2022-07-12T00:26:49;5.00;;;1.48;;
70080;SDS011;57452;50.496;30.504;2022-07-12T00:29:17;3.85;;;1.50;;
70080;SDS011;57452;50.496;30.504;2022-07-12T00:31:44;5.40;;;2.00;;
70080;SDS011;57452;50.496;30.504;2022-07-12T00:34:12;4.28;;;1.23;;
70080;SDS011;57452;50.496;30.504;2022-07-12T00:36:39;4.20;;;1.60;;
70080;SDS011;57452;50.496;30.504;2022-07-12T00:39:07;2.78;;;1.50;;
70080;SDS011;57452;50.496;30.504;2022-07-12T00:41:34;2.05;;;1.25;;
70080;SDS011;57452;50.496;30.504;2022-07-12T00:44:01;2.83;;;1.30;;
70080;SDS011;57452;50.496;30.504;2022-07-12T00:46:29;3.08;;;1.20;;
70080;SDS011;57452;50.496;30.504;2022-07-12T00:48:57;3.05;;;1.40;;
70080;SDS011;57452;50.496;30.504;2022-07-12T00:51:24;2.20;;;1.55;;
70080;SDS011;57452;50.496;30.504;2022-07-12T00:53:52;3.13;;;2.10;;
70080;SDS011;57452;50.496;30.504;2022-07-12T00:56:20;3.15;;;1.38;;
70080;SDS011;57452;50.496;30.504;2022-07-12T00:58:48;3.08;;;1.17;;
70080;SDS011;57452;50.496;30.504;2022-07-12T01:01:15;5.03;;;1.35;;
70080;SDS011;57452;50.496;30.504;2022-07-12T01:03:43;2.70;;;1.30;;
70080;SDS011;57452;50.496;30.504;2022-07-12T01:06:13;2.95;;;1.38;;
70080;SDS011;57452;50.496;30.504;2022-07-12T01:08:40;3.08;;;1.55;;
70080;SDS011;57452;50.496;30.504;2022-07-12T01:11:08;2.55;;;1.30;;
70080;SDS011;57452;50.496;30.504;2022-07-12T01:13:35;1.58;;;0.90;;
70080;SDS011;57452;50.496;30.504;2022-07-12T01:16:07;2.58;;;1.20;;
70080;SDS011;57452;50.496;30.504;2022-07-12T01:18:35;3.28;;;1.33;;
70080;SDS011;57452;50.496;30.504;2022-07-12T01:21:04;3.75;;;1.63;;
70080;SDS011;57452;50.496;30.504;2022-07-12T01:23:32;1.75;;;0.93;;
70080;SDS011;57452;50.496;30.504;2022-07-12T01:26:00;2.65;;;1.30;;
70080;SDS011;57452;50.496;30.504;2022-07-12T01:28:28;5.38;;;1.52;;
70080;SDS011;57452;50.496;30.504;2022-07-12T01:30:56;6.70;;;1.35;;
70080;SDS011;57452;50.496;30.504;2022-07-12T01:33:24;5.93;;;1.33;;
70080;SDS011;57452;50.496;30.504;2022-07-12T01:35:52;4.88;;;1.40;;
70080;SDS011;57452;50.496;30.504;2022-07-12T01:38:20;2.38;;;1.48;;
70080;SDS011;57452;50.496;30.504;2022-07-12T01:40:48;3.63;;;1.25;;
70080;SDS011;57452;50.496;30.504;2022-07-12T01:43:15;2.28;;;1.33;;
70080;SDS011;57452;50.496;30.504;2022-07-12T01:45:43;2.08;;;1.17;;
70080;SDS011;57452;50.496;30.504;2022-07-12T01:48:10;3.60;;;1.40;;
70080;SDS011;57452;50.496;30.504;2022-07-12T01:50:38;3.95;;;1.42;;
70080;SDS011;57452;50.496;30.504;2022-07-12T01:53:05;3.40;;;1.10;;
70080;SDS011;57452;50.496;30.504;2022-07-12T01:55:33;1.60;;;1.10;;
70080;SDS011;57452;50.496;30.504;2022-07-12T01:58:01;2.35;;;1.40;;
70080;SDS011;57452;50.496;30.504;2022-07-12T02:00:28;2.40;;;1.10;;
70080;SDS011;57452;50.496;30.504;2022-07-12T02:02:56;2.08;;;1.45;;
70080;SDS011;57452;50.496;30.504;2022-07-12T02:05:26;3.20;;;1.38;;
70080;SDS011;57452;50.496;30.504;2022-07-12T02:07:53;5.70;;;2.03;;
70080;SDS011;57452;50.496;30.504;2022-07-12T02:10:21;2.33;;;1.15;;
70080;SDS011;57452;50.496;30.504;2022-07-12T02:12:49;3.22;;;1.60;;
70080;SDS011;57452;50.496;30.504;2022-07-12T02:15:16;2.30;;;1.70;;
70080;SDS011;57452;50.496;30.504;2022-07-12T02:17:44;3.63;;;1.60;;
70080;SDS011;57452;50.496;30.504;2022-07-12T02:20:12;2.53;;;1.30;;
70080;SDS011;57452;50.496;30.504;2022-07-12T02:22:40;1.50;;;1.10;;
70080;SDS011;57452;50.496;30.504;2022-07-12T02:25:07;2.80;;;1.63;;
70080;SDS011;57452;50.496;30.504;2022-07-12T02:27:34;4.22;;;2.05;;
70080;SDS011;57452;50.496;30.504;2022-07-12T02:30:02;2.75;;;1.67;;
70080;SDS011;57452;50.496;30.504;2022-07-12T02:32:29;8.88;;;1.92;;
70080;SDS011;57452;50.496;30.504;2022-07-12T02:34:57;2.17;;;1.52;;
70080;SDS011;57452;50.496;30.504;2022-07-12T02:37:24;2.90;;;1.33;;
70080;SDS011;57452;50.496;30.504;2022-07-12T02:39:52;3.28;;;1.50;;
70080;SDS011;57452;50.496;30.504;2022-07-12T02:42:39;5.13;;;1.33;;
70080;SDS011;57452;50.496;30.504;2022-07-12T02:45:07;3.78;;;1.67;;
70080;SDS011;57452;50.496;30.504;2022-07-12T02:47:36;8.10;;;2.33;;
70080;SDS011;57452;50.496;30.504;2022-07-12T02:50:04;3.33;;;1.48;;
70080;SDS011;57452;50.496;30.504;2022-07-12T02:52:31;1.90;;;1.40;;
70080;SDS011;57452;50.496;30.504;2022-07-12T02:54:58;3.33;;;1.52;;
70080;SDS011;57452;50.496;30.504;2022-07-12T02:57:26;5.35;;;1.50;;
70080;SDS011;57452;50.496;30.504;2022-07-12T02:59:53;3.35;;;1.40;;
70080;SDS011;57452;50.496;30.504;2022-07-12T03:02:20;4.72;;;1.50;;
70080;SDS011;57452;50.496;30.504;2022-07-12T03:04:48;2.95;;;1.52;;
70080;SDS011;57452;50.496;30.504;2022-07-12T03:07:15;3.35;;;1.67;;
70080;SDS011;57452;50.496;30.504;2022-07-12T03:09:43;3.88;;;1.30;;
70080;SDS011;57452;50.496;30.504;2022-07-12T03:12:11;1.88;;;1.40;;
70080;SDS011;57452;50.496;30.504;2022-07-12T03:14:39;2.13;;;1.08;;
70080;SDS011;57452;50.496;30.504;2022-07-12T03:17:06;3.53;;;1.45;;
70080;SDS011;57452;50.496;30.504;2022-07-12T03:19:33;3.53;;;1.35;;
70080;SDS011;57452;50.496;30.504;2022-07-12T03:22:01;2.00;;;1.10;;
70080;SDS011;57452;50.496;30.504;2022-07-12T03:24:28;3.92;;;1.60;;
70080;SDS011;57452;50.496;30.504;2022-07-12T03:26:56;3.33;;;1.25;;
70080;SDS011;57452;50.496;30.504;2022-07-12T03:29:23;1.80;;;1.33;;
70080;SDS011;57452;50.496;30.504;2022-07-12T03:31:50;3.17;;;1.20;;
70080;SDS011;57452;50.496;30.504;2022-07-12T03:34:18;2.17;;;1.30;;
70080;SDS011;57452;50.496;30.504;2022-07-12T03:36:45;2.40;;;1.10;;
70080;SDS011;57452;50.496;30.504;2022-07-12T03:39:13;2.88;;;1.27;;
70080;SDS011;57452;50.496;30.504;2022-07-12T03:41:40;2.95;;;1.65;;
70080;SDS011;57452;50.496;30.504;2022-07-12T03:44:09;1.88;;;1.30;;
70080;SDS011;57452;50.496;30.504;2022-07-12T03:46:36;4.50;;;1.27;;
70080;SDS011;57452;50.496;30.504;2022-07-12T03:49:03;6.45;;;2.33;;
70080;SDS011;57452;50.496;30.504;2022-07-12T03:51:31;3.35;;;1.15;;
70080;SDS011;57452;50.496;30.504;2022-07-12T03:53:59;4.30;;;2.05;;
70080;SDS011;57452;50.496;30.504;2022-07-12T03:56:26;2.70;;;1.50;;
70080;SDS011;57452;50.496;30.504;2022-07-12T03:59:12;2.97;;;1.50;;
70080;SDS011;57452;50.496;30.504;2022-07-12T04:01:39;3.58;;;1.60;;
70080;SDS011;57452;50.496;30.504;2022-07-12T04:04:07;2.25;;;1.50;;
70080;SDS011;57452;50.496;30.504;2022-07-12T04:06:34;4.55;;;1.77;;
70080;SDS011;57452;50.496;30.504;2022-07-12T04:09:02;5.30;;;1.55;;
70080;SDS011;57452;50.496;30.504;2022-07-12T04:11:30;2.50;;;1.30;;
70080;SDS011;57452;50.496;30.504;2022-07-12T04:13:58;5.80;;;1.73;;
70080;SDS011;57452;50.496;30.504;2022-07-12T04:16:25;4.63;;;1.52;;
70080;SDS011;57452;50.496;30.504;2022-07-12T04:18:53;3.25;;;1.73;;
70080;SDS011;57452;50.496;30.504;2022-07-12T04:21:21;3.63;;;1.52;;
70080;SDS011;57452;50.496;30.504;2022-07-12T04:23:49;3.92;;;1.75;;
70080;SDS011;57452;50.496;30.504;2022-07-12T04:26:16;3.35;;;1.40;;
70080;SDS011;57452;50.496;30.504;2022-07-12T04:28:43;3.47;;;1.42;;
70080;SDS011;57452;50.496;30.504;2022-07-12T04:31:11;5.38;;;1.73;;
70080;SDS011;57452;50.496;30.504;2022-07-12T04:33:38;5.32;;;2.05;;
70080;SDS011;57452;50.496;30.504;2022-07-12T04:36:06;7.63;;;1.55;;
70080;SDS011;57452;50.496;30.504;2022-07-12T04:38:34;3.15;;;2.03;;
70080;SDS011;57452;50.496;30.504;2022-07-12T04:41:01;3.45;;;1.40;;
70080;SDS011;57452;50.496;30.504;2022-07-12T04:43:28;4.10;;;1.35;;
70080;SDS011;57452;50.496;30.504;2022-07-12T04:45:56;2.38;;;1.60;;
70080;SDS011;57452;50.496;30.504;2022-07-12T04:48:32;4.47;;;1.70;;
70080;SDS011;57452;50.496;30.504;2022-07-12T04:51:02;3.15;;;1.50;;
70080;SDS011;57452;50.496;30.504;2022-07-12T04:53:32;3.10;;;1.53;;
70080;SDS011;57452;50.496;30.504;2022-07-12T04:56:00;6.03;;;1.70;;
70080;SDS011;57452;50.496;30.504;2022-07-12T04:58:27;4.32;;;1.48;;
70080;SDS011;57452;50.496;30.504;2022-07-12T05:00:54;3.38;;;1.33;;
70080;SDS011;57452;50.496;30.504;2022-07-12T05:03:22;3.53;;;1.48;;
70080;SDS011;57452;50.496;30.504;2022-07-12T05:05:53;4.88;;;2.22;;
70080;SDS011;57452;50.496;30.504;2022-07-12T05:08:21;5.35;;;1.75;;
70080;SDS011;57452;50.496;30.504;2022-07-12T05:10:48;4.65;;;1.60;;
70080;SDS011;57452;50.496;30.504;2022-07-12T05:13:16;4.25;;;1.45;;
70080;SDS011;57452;50.496;30.504;2022-07-12T05:15:43;3.85;;;1.33;;
70080;SDS011;57452;50.496;30.504;2022-07-12T05:18:11;2.00;;;1.27;;
70080;SDS011;57452;50.496;30.504;2022-07-12T05:20:39;3.08;;;1.35;;
70080;SDS011;57452;50.496;30.504;2022-07-12T05:23:16;3.85;;;1.40;;
70080;SDS011;57452;50.496;30.504;2022-07-12T05:25:43;3.15;;;1.38;;
70080;SDS011;57452;50.496;30.504;2022-07-12T05:28:13;2.90;;;1.10;;
70080;SDS011;57452;50.496;30.504;2022-07-12T05:30:42;2.10;;;1.27;;
70080;SDS011;57452;50.496;30.504;2022-07-12T05:33:10;3.58;;;1.42;;
70080;SDS011;57452;50.496;30.504;2022-07-12T05:35:38;1.63;;;1.08;;
70080;SDS011;57452;50.496;30.504;2022-07-12T05:38:05;3.83;;;1.20;;
70080;SDS011;57452;50.496;30.504;2022-07-12T05:40:33;4.82;;;1.50;;
70080;SDS011;57452;50.496;30.504;2022-07-12T05:43:00;2.22;;;1.30;;
70080;SDS011;57452;50.496;30.504;2022-07-12T05:45:28;4.45;;;1.35;;
70080;SDS011;57452;50.496;30.504;2022-07-12T05:47:55;4.72;;;1.40;;
70080;SDS011;57452;50.496;30.504;2022-07-12T05:50:23;2.28;;;1.35;;
70080;SDS011;57452;50.496;30.504;2022-07-12T05:52:50;3.20;;;1.40;;
70080;SDS011;57452;50.496;30.504;2022-07-12T05:55:36;2.88;;;1.20;;
70080;SDS011;57452;50.496;30.504;2022-07-12T05:58:03;3.78;;;1.30;;
70080;SDS011;57452;50.496;30.504;2022-07-12T06:00:31;3.90;;;1.52;;
70080;SDS011;57452;50.496;30.504;2022-07-12T06:02:59;7.13;;;1.30;;
70080;SDS011;57452;50.496;30.504;2022-07-12T06:05:26;2.25;;;1.10;;
70080;SDS011;57452;50.496;30.504;2022-07-12T06:07:54;2.53;;;1.17;;
70080;SDS011;57452;50.496;30.504;2022-07-12T06:10:21;2.90;;;1.45;;
70080;SDS011;57452;50.496;30.504;2022-07-12T06:12:49;4.53;;;1.25;;
70080;SDS011;57452;50.496;30.504;2022-07-12T06:15:17;5.25;;;1.23;;
70080;SDS011;57452;50.496;30.504;2022-07-12T06:17:44;2.58;;;1.40;;
70080;SDS011;57452;50.496;30.504;2022-07-12T06:20:13;3.60;;;1.33;;
70080;SDS011;57452;50.496;30.504;2022-07-12T06:22:40;2.72;;;1.20;;
70080;SDS011;57452;50.496;30.504;2022-07-12T06:25:08;2.58;;;1.35;;
70080;SDS011;57452;50.496;30.504;2022-07-12T06:27:55;3.33;;;1.35;;
70080;SDS011;57452;50.496;30.504;2022-07-12T06:30:23;4.28;;;1.17;;
70080;SDS011;57452;50.496;30.504;2022-07-12T06:32:50;6.95;;;1.02;;
70080;SDS011;57452;50.496;30.504;2022-07-12T06:35:18;2.85;;;1.10;;
70080;SDS011;57452;50.496;30.504;2022-07-12T06:37:46;2.05;;;1.20;;
70080;SDS011;57452;50.496;30.504;2022-07-12T06:40:13;3.75;;;1.52;;
70080;SDS011;57452;50.496;30.504;2022-07-12T06:42:43;2.90;;;1.30;;
70080;SDS011;57452;50.496;30.504;2022-07-12T06:45:10;1.85;;;1.00;;
70080;SDS011;57452;50.496;30.504;2022-07-12T06:47:38;2.30;;;1.00;;
70080;SDS011;57452;50.496;30.504;2022-07-12T06:50:05;1.98;;;1.10;;
70080;SDS011;57452;50.496;30.504;2022-07-12T06:52:33;2.75;;;0.93;;
70080;SDS011;57452;50.496;30.504;2022-07-12T06:55:00;1.75;;;0.90;;
70080;SDS011;57452;50.496;30.504;2022-07-12T06:57:28;2.08;;;1.27;;
70080;SDS011;57452;50.496;30.504;2022-07-12T06:59:59;3.88;;;1.35;;
70080;SDS011;57452;50.496;30.504;2022-07-12T07:02:31;2.67;;;1.35;;
70080;SDS011;57452;50.496;30.504;2022-07-12T07:04:58;4.50;;;1.10;;
70080;SDS011;57452;50.496;30.504;2022-07-12T07:07:26;2.85;;;0.85;;
70080;SDS011;57452;50.496;30.504;2022-07-12T07:09:53;0.85;;;0.65;;
70080;SDS011;57452;50.496;30.504;2022-07-12T07:12:21;3.33;;;1.00;;
70080;SDS011;57452;50.496;30.504;2022-07-12T07:14:49;4.43;;;0.95;;
70080;SDS011;57452;50.496;30.504;2022-07-12T07:17:16;4.70;;;1.00;;
70080;SDS011;57452;50.496;30.504;2022-07-12T07:19:44;2.00;;;1.23;;
70080;SDS011;57452;50.496;30.504;2022-07-12T07:22:12;1.27;;;0.70;;
70080;SDS011;57452;50.496;30.504;2022-07-12T07:24:40;4.63;;;1.02;;
70080;SDS011;57452;50.496;30.504;2022-07-12T07:27:07;3.33;;;1.02;;
70080;SDS011;57452;50.496;30.504;2022-07-12T07:29:35;4.22;;;1.38;;
70080;SDS011;57452;50.496;30.504;2022-07-12T07:32:21;3.45;;;1.17;;
70080;SDS011;57452;50.496;30.504;2022-07-12T07:34:49;2.65;;;1.10;;
70080;SDS011;57452;50.496;30.504;2022-07-12T07:37:16;1.65;;;0.90;;
70080;SDS011;57452;50.496;30.504;2022-07-12T07:39:44;2.25;;;0.80;;
70080;SDS011;57452;50.496;30.504;2022-07-12T07:42:11;4.22;;;1.00;;
70080;SDS011;57452;50.496;30.504;2022-07-12T07:44:38;4.22;;;1.20;;
70080;SDS011;57452;50.496;30.504;2022-07-12T07:47:26;4.07;;;1.52;;
70080;SDS011;57452;50.496;30.504;2022-07-12T07:49:56;2.45;;;1.20;;
70080;SDS011;57452;50.496;30.504;2022-07-12T07:52:25;5.03;;;1.05;;
70080;SDS011;57452;50.496;30.504;2022-07-12T07:54:53;4.55;;;1.30;;
70080;SDS011;57452;50.496;30.504;2022-07-12T07:57:21;3.67;;;1.13;;
70080;SDS011;57452;50.496;30.504;2022-07-12T07:59:49;3.08;;;0.90;;
70080;SDS011;57452;50.496;30.504;2022-07-12T08:02:16;2.38;;;1.13;;
70080;SDS011;57452;50.496;30.504;2022-07-12T08:04:44;2.80;;;0.82;;
70080;SDS011;57452;50.496;30.504;2022-07-12T08:07:11;2.75;;;0.90;;
70080;SDS011;57452;50.496;30.504;2022-07-12T08:10:00;1.45;;;1.00;;
70080;SDS011;57452;50.496;30.504;2022-07-12T08:12:27;1.88;;;0.90;;
70080;SDS011;57452;50.496;30.504;2022-07-12T08:14:54;2.20;;;1.02;;
70080;SDS011;57452;50.496;30.504;2022-07-12T08:17:22;2.55;;;0.90;;
70080;SDS011;57452;50.496;30.504;2022-07-12T08:19:50;1.33;;;0.77;;
70080;SDS011;57452;50.496;30.504;2022-07-12T08:22:18;5.47;;;1.10;;
70080;SDS011;57452;50.496;30.504;2022-07-12T08:24:45;1.35;;;0.70;;
70080;SDS011;57452;50.496;30.504;2022-07-12T08:27:12;6.07;;;1.17;;
70080;SDS011;57452;50.496;30.504;2022-07-12T08:29:40;4.35;;;0.93;;
70080;SDS011;57452;50.496;30.504;2022-07-12T08:32:07;6.43;;;1.10;;
70080;SDS011;57452;50.496;30.504;2022-07-12T08:34:35;1.80;;;0.88;;
70080;SDS011;57452;50.496;30.504;2022-07-12T08:37:04;1.92;;;1.02;;
70080;SDS011;57452;50.496;30.504;2022-07-12T08:39:31;5.00;;;1.23;;
70080;SDS011;57452;50.496;30.504;2022-07-12T08:41:59;5.60;;;1.30;;
70080;SDS011;57452;50.496;30.504;2022-07-12T08:44:26;5.32;;;0.93;;
70080;SDS011;57452;50.496;30.504;2022-07-12T08:46:53;8.40;;;1.52;;
70080;SDS011;57452;50.496;30.504;2022-07-12T08:49:21;7.47;;;2.22;;
70080;SDS011;57452;50.496;30.504;2022-07-12T08:51:48;6.35;;;0.93;;
70080;SDS011;57452;50.496;30.504;2022-07-12T08:54:16;4.00;;;0.77;;
70080;SDS011;57452;50.496;30.504;2022-07-12T08:56:44;3.90;;;1.08;;
70080;SDS011;57452;50.496;30.504;2022-07-12T09:01:52;1.60;;;0.93;;
70080;SDS011;57452;50.496;30.504;2022-07-12T09:04:21;5.80;;;1.30;;
70080;SDS011;57452;50.496;30.504;2022-07-12T09:06:49;6.35;;;1.13;;
70080;SDS011;57452;50.496;30.504;2022-07-12T09:11:57;1.25;;;0.60;;
70080;SDS011;57452;50.496;30.504;2022-07-12T09:14:24;6.18;;;1.25;;
70080;SDS011;57452;50.496;30.504;2022-07-12T09:16:58;1.15;;;0.80;;
70080;SDS011;57452;50.496;30.504;2022-07-12T09:19:26;0.98;;;0.55;;
70080;SDS011;57452;50.496;30.504;2022-07-12T09:21:54;2.13;;;0.80;;
70080;SDS011;57452;50.496;30.504;2022-07-12T09:24:25;3.15;;;0.68;;
70080;SDS011;57452;50.496;30.504;2022-07-12T09:26:53;4.13;;;0.82;;
70080;SDS011;57452;50.496;30.504;2022-07-12T09:29:21;4.95;;;0.80;;
70080;SDS011;57452;50.496;30.504;2022-07-12T09:31:49;1.80;;;1.00;;
70080;SDS011;57452;50.496;30.504;2022-07-12T09:34:35;5.28;;;1.23;;
70080;SDS011;57452;50.496;30.504;2022-07-12T09:37:23;2.58;;;1.27;;
70080;SDS011;57452;50.496;30.504;2022-07-12T09:39:53;1.85;;;1.02;;
70080;SDS011;57452;50.496;30.504;2022-07-12T09:42:21;2.15;;;0.80;;
70080;SDS011;57452;50.496;30.504;2022-07-12T09:44:54;21.85;;;1.85;;
70080;SDS011;57452;50.496;30.504;2022-07-12T09:47:23;14.52;;;1.90;;
70080;SDS011;57452;50.496;30.504;2022-07-12T09:49:52;9.98;;;1.55;;
70080;SDS011;57452;50.496;30.504;2022-07-12T09:52:21;2.85;;;0.70;;
70080;SDS011;57452;50.496;30.504;2022-07-12T09:54:49;3.72;;;0.75;;
70080;SDS011;57452;50.496;30.504;2022-07-12T09:57:31;6.93;;;1.08;;
70080;SDS011;57452;50.496;30.504;2022-07-12T10:00:02;0.63;;;0.45;;
70080;SDS011;57452;50.496;30.504;2022-07-12T10:02:32;7.65;;;1.00;;
70080;SDS011;57452;50.496;30.504;2022-07-12T10:05:00;4.57;;;0.82;;
70080;SDS011;57452;50.496;30.504;2022-07-12T10:07:31;19.00;;;1.77;;
70080;SDS011;57452;50.496;30.504;2022-07-12T10:09:59;5.35;;;1.25;;
70080;SDS011;57452;50.496;30.504;2022-07-12T10:12:26;6.55;;;1.02;;
70080;SDS011;57452;50.496;30.504;2022-07-12T10:15:04;3.92;;;0.77;;
70080;SDS011;57452;50.496;30.504;2022-07-12T10:17:32;3.45;;;0.75;;
70080;SDS011;57452;50.496;30.504;2022-07-12T10:22:43;1.52;;;0.82;;
70080;SDS011;57452;50.496;30.504;2022-07-12T10:25:29;1.00;;;0.60;;
70080;SDS011;57452;50.496;30.504;2022-07-12T10:27:57;1.15;;;0.52;;
70080;SDS011;57452;50.496;30.504;2022-07-12T10:30:25;2.83;;;0.80;;
70080;SDS011;57452;50.496;30.504;2022-07-12T10:32:53;12.13;;;1.35;;
70080;SDS011;57452;50.496;30.504;2022-07-12T10:35:24;2.65;;;0.70;;
70080;SDS011;57452;50.496;30.504;2022-07-12T10:40:39;1.30;;;0.70;;
70080;SDS011;57452;50.496;30.504;2022-07-12T10:45:37;2.35;;;0.63;;
70080;SDS011;57452;50.496;30.504;2022-07-12T10:48:09;3.55;;;0.55;;
70080;SDS011;57452;50.496;30.504;2022-07-12T10:58:39;1.85;;;0.65;;
70080;SDS011;57452;50.496;30.504;2022-07-12T11:01:16;5.90;;;0.73;;
70080;SDS011;57452;50.496;30.504;2022-07-12T11:03:48;3.08;;;0.90;;
70080;SDS011;57452;50.496;30.504;2022-07-12T11:06:21;2.38;;;0.77;;
70080;SDS011;57452;50.496;30.504;2022-07-12T11:11:19;1.95;;;0.90;;
70080;SDS011;57452;50.496;30.504;2022-07-12T11:13:48;3.92;;;1.00;;
70080;SDS011;57452;50.496;30.504;2022-07-12T11:16:16;2.75;;;1.13;;
70080;SDS011;57452;50.496;30.504;2022-07-12T11:18:45;2.45;;;1.10;;
70080;SDS011;57452;50.496;30.504;2022-07-12T11:21:14;1.55;;;0.77;;
70080;SDS011;57452;50.496;30.504;2022-07-12T11:23:42;10.15;;;1.52;;
70080;SDS011;57452;50.496;30.504;2022-07-12T11:26:10;1.92;;;0.90;;
70080;SDS011;57452;50.496;30.504;2022-07-12T11:28:39;1.92;;;0.90;;
70080;SDS011;57452;50.496;30.504;2022-07-12T11:31:10;4.72;;;0.90;;
70080;SDS011;57452;50.496;30.504;2022-07-12T11:33:42;2.35;;;1.00;;
70080;SDS011;57452;50.496;30.504;2022-07-12T11:36:11;4.05;;;1.30;;
70080;SDS011;57452;50.496;30.504;2022-07-12T11:38:40;2.58;;;0.85;;
70080;SDS011;57452;50.496;30.504;2022-07-12T11:41:10;4.15;;;1.42;;
70080;SDS011;57452;50.496;30.504;2022-07-12T11:43:39;4.63;;;1.55;;
70080;SDS011;57452;50.496;30.504;2022-07-12T11:46:07;9.02;;;2.25;;
70080;SDS011;57452;50.496;30.504;2022-07-12T11:48:35;4.80;;;2.20;;
70080;SDS011;57452;50.496;30.504;2022-07-12T11:51:04;14.02;;;3.28;;
70080;SDS011;57452;50.496;30.504;2022-07-12T11:53:32;9.10;;;2.47;;
70080;SDS011;57452;50.496;30.504;2022-07-12T11:56:00;4.93;;;2.60;;
70080;SDS011;57452;50.496;30.504;2022-07-12T11:58:29;5.50;;;2.40;;
70080;SDS011;57452;50.496;30.504;2022-07-12T12:00:59;9.68;;;2.70;;
70080;SDS011;57452;50.496;30.504;2022-07-12T12:03:27;4.80;;;1.77;;
70080;SDS011;57452;50.496;30.504;2022-07-12T12:05:55;2.90;;;1.40;;
70080;SDS011;57452;50.496;30.504;2022-07-12T12:08:23;3.65;;;1.85;;
70080;SDS011;57452;50.496;30.504;2022-07-12T12:10:56;2.80;;;1.33;;
70080;SDS011;57452;50.496;30.504;2022-07-12T12:13:29;3.97;;;1.67;;
70080;SDS011;57452;50.496;30.504;2022-07-12T12:15:57;2.70;;;1.40;;
70080;SDS011;57452;50.496;30.504;2022-07-12T12:18:29;7.30;;;2.40;;
70080;SDS011;57452;50.496;30.504;2022-07-12T12:20:57;6.38;;;2.10;;
70080;SDS011;57452;50.496;30.504;2022-07-12T12:23:25;3.63;;;1.60;;
70080;SDS011;57452;50.496;30.504;2022-07-12T12:25:52;5.40;;;2.60;;
70080;SDS011;57452;50.496;30.504;2022-07-12T12:28:21;5.45;;;2.28;;
70080;SDS011;57452;50.496;30.504;2022-07-12T12:30:49;5.70;;;2.50;;
70080;SDS011;57452;50.496;30.504;2022-07-12T12:36:37;5.38;;;1.90;;
70080;SDS011;57452;50.496;30.504;2022-07-12T12:38:59;3.55;;;1.80;;
70080;SDS011;57452;50.496;30.504;2022-07-12T12:41:28;3.55;;;1.58;;
70080;SDS011;57452;50.496;30.504;2022-07-12T12:44:03;4.72;;;1.60;;
70080;SDS011;57452;50.496;30.504;2022-07-12T12:49:17;4.25;;;1.50;;
70080;SDS011;57452;50.496;30.504;2022-07-12T12:51:54;3.40;;;1.85;;
70080;SDS011;57452;50.496;30.504;2022-07-12T12:54:35;2.65;;;1.67;;
70080;SDS011;57452;50.496;30.504;2022-07-12T12:57:05;3.55;;;1.50;;
70080;SDS011;57452;50.496;30.504;2022-07-12T12:59:36;5.20;;;1.75;;
70080;SDS011;57452;50.496;30.504;2022-07-12T13:02:04;6.20;;;2.75;;
70080;SDS011;57452;50.496;30.504;2022-07-12T13:04:32;4.47;;;1.88;;
70080;SDS011;57452;50.496;30.504;2022-07-12T13:07:00;3.30;;;1.70;;
70080;SDS011;57452;50.496;30.504;2022-07-12T13:09:37;4.65;;;2.00;;
70080;SDS011;57452;50.496;30.504;2022-07-12T13:12:05;7.20;;;2.35;;
70080;SDS011;57452;50.496;30.504;2022-07-12T13:14:33;7.45;;;1.50;;
70080;SDS011;57452;50.496;30.504;2022-07-12T13:17:02;2.70;;;1.65;;
70080;SDS011;57452;50.496;30.504;2022-07-12T13:19:30;2.83;;;1.60;;
70080;SDS011;57452;50.496;30.504;2022-07-12T13:21:58;4.10;;;1.58;;
70080;SDS011;57452;50.496;30.504;2022-07-12T13:24:26;3.05;;;2.00;;
70080;SDS011;57452;50.496;30.504;2022-07-12T13:26:54;3.03;;;1.60;;
70080;SDS011;57452;50.496;30.504;2022-07-12T13:29:21;3.28;;;1.70;;
70080;SDS011;57452;50.496;30.504;2022-07-12T13:31:49;3.42;;;1.70;;
70080;SDS011;57452;50.496;30.504;2022-07-12T13:34:22;4.40;;;1.75;;
70080;SDS011;57452;50.496;30.504;2022-07-12T13:36:49;4.22;;;1.60;;
70080;SDS011;57452;50.496;30.504;2022-07-12T13:39:16;6.07;;;2.08;;
70080;SDS011;57452;50.496;30.504;2022-07-12T13:42:02;3.38;;;1.90;;
70080;SDS011;57452;50.496;30.504;2022-07-12T13:44:30;4.13;;;1.70;;
70080;SDS011;57452;50.496;30.504;2022-07-12T13:46:57;4.53;;;1.60;;
70080;SDS011;57452;50.496;30.504;2022-07-12T13:49:25;3.63;;;1.90;;
70080;SDS011;57452;50.496;30.504;2022-07-12T13:51:52;4.10;;;1.65;;
70080;SDS011;57452;50.496;30.504;2022-07-12T13:54:20;4.05;;;1.60;;
70080;SDS011;57452;50.496;30.504;2022-07-12T13:56:47;3.95;;;1.90;;
70080;SDS011;57452;50.496;30.504;2022-07-12T13:59:15;4.57;;;1.90;;
70080;SDS011;57452;50.496;30.504;2022-07-12T14:01:42;3.13;;;2.00;;
70080;SDS011;57452;50.496;30.504;2022-07-12T14:04:10;6.53;;;2.15;;
70080;SDS011;57452;50.496;30.504;2022-07-12T14:06:38;4.65;;;2.08;;
70080;SDS011;57452;50.496;30.504;2022-07-12T14:09:06;4.28;;;2.10;;
70080;SDS011;57452;50.496;30.504;2022-07-12T14:11:33;4.95;;;1.70;;
70080;SDS011;57452;50.496;30.504;2022-07-12T14:14:01;2.45;;;1.05;;
70080;SDS011;57452;50.496;30.504;2022-07-12T14:16:29;2.53;;;1.20;;
70080;SDS011;57452;50.496;30.504;2022-07-12T14:18:56;3.88;;;1.38;;
70080;SDS011;57452;50.496;30.504;2022-07-12T14:21:26;1.88;;;1.00;;
70080;SDS011;57452;50.496;30.504;2022-07-12T14:23:56;3.40;;;1.00;;
70080;SDS011;57452;50.496;30.504;2022-07-12T14:26:29;1.27;;;0.90;;
70080;SDS011;57452;50.496;30.504;2022-07-12T14:28:57;4.57;;;1.17;;
70080;SDS011;57452;50.496;30.504;2022-07-12T14:31:24;1.67;;;1.08;;
70080;SDS011;57452;50.496;30.504;2022-07-12T14:33:52;2.10;;;0.95;;
70080;SDS011;57452;50.496;30.504;2022-07-12T14:36:19;2.10;;;1.00;;
70080;SDS011;57452;50.496;30.504;2022-07-12T14:38:47;1.90;;;1.10;;
70080;SDS011;57452;50.496;30.504;2022-07-12T14:41:19;3.75;;;1.23;;
70080;SDS011;57452;50.496;30.504;2022-07-12T14:43:46;2.78;;;1.20;;
70080;SDS011;57452;50.496;30.504;2022-07-12T14:46:16;2.20;;;1.40;;
70080;SDS011;57452;50.496;30.504;2022-07-12T14:48:43;2.97;;;1.25;;
70080;SDS011;57452;50.496;30.504;2022-07-12T14:51:10;2.47;;;1.17;;
70080;SDS011;57452;50.496;30.504;2022-07-12T14:53:40;2.97;;;1.02;;
70080;SDS011;57452;50.496;30.504;2022-07-12T14:56:07;2.38;;;1.00;;
70080;SDS011;57452;50.496;30.504;2022-07-12T14:58:35;2.95;;;0.95;;
70080;SDS011;57452;50.496;30.504;2022-07-12T15:01:02;2.75;;;1.15;;
70080;SDS011;57452;50.496;30.504;2022-07-12T15:03:32;4.18;;;1.30;;
70080;SDS011;57452;50.496;30.504;2022-07-12T15:06:00;3.55;;;1.20;;
70080;SDS011;57452;50.496;30.504;2022-07-12T15:08:30;2.58;;;1.52;;
70080;SDS011;57452;50.496;30.504;2022-07-12T15:10:58;3.03;;;1.25;;
70080;SDS011;57452;50.496;30.504;2022-07-12T15:13:26;3.08;;;1.67;;